WetterOnline ( http://www.wetteronline.de )

Wetter aktuell Helgoland

Aktuelles Wetter: Helgoland/Düne (8m)

6-stündlich | Neueste Meldungen
Ortszeit Temperatur Wetter
Do, 16.08. 20:00 19.3° C bewölkt
Do, 16.08. 14:00 20.1° C bedeckt
Do, 16.08. 8:00 18.6° C bedeckt
Do, 16.08. 2:00 19.0° C wolkenlos
Mi, 15.08. 20:00 20.1° C bewölkt
Mi, 15.08. 14:00 20.0° C bedeckt
Mi, 15.08. 8:00 18.5° C bedeckt
Mi, 15.08. 2:00 18.2° C bedeckt
Ortszeit Temperatur Wetter
Do, 16.08. 21:00 17.8° C wolkenlos
Do, 16.08. 20:50 17.8° C wolkenlos
Do, 16.08. 20:40 17.8° C wolkenlos
Do, 16.08. 20:30 17.7° C leicht bewölkt
Do, 16.08. 20:20 17.7° C leicht bewölkt
Do, 16.08. 20:10 18.2° C wolkig
Do, 16.08. 20:00 19.3° C bewölkt
Do, 16.08. 19:30 19.5° C bedeckt
Do, 16.08. 19:00 19.7° C bewölkt
Do, 16.08. 18:30 19.8° C bedeckt
Do, 16.08. 18:00 20.3° C bedeckt
Ortszeit Relative Feuchte Sichtweite
Do, 16.08. 20:00 84% 25 km
Do, 16.08. 14:00 75% 22 km
Do, 16.08. 8:00 83% 13 km
Do, 16.08. 2:00 85% 16 km
Mi, 15.08. 20:00 83% 30 km
Mi, 15.08. 14:00 85% 22 km
Mi, 15.08. 8:00 86% 35 km
Mi, 15.08. 2:00 82% 35 km
Ortszeit Relative Feuchte Sichtweite
Do, 16.08. 21:00 88% 45 km
Do, 16.08. 20:50 88% -
Do, 16.08. 20:40 89% -
Do, 16.08. 20:30 90% 35 km
Do, 16.08. 20:20 90% -
Do, 16.08. 20:10 89% -
Do, 16.08. 20:00 84% 25 km
Do, 16.08. 19:30 83% 27 km
Do, 16.08. 19:00 83% 17 km
Do, 16.08. 18:30 84% 19 km
Do, 16.08. 18:00 80% 27 km
Ortszeit Niederschlagsmenge Niederschlagsart
Do, 16.08. 20:00 0.0 l/m2 in 12 Std. -
Do, 16.08. 14:00 0.0 l/m2 in 6 Std. -
Do, 16.08. 8:00 0.1 l/m2 in 12 Std. -
Do, 16.08. 2:00 0.1 l/m2 in 6 Std. Regen
Mi, 15.08. 20:00 0.4 l/m2 in 12 Std. -
Mi, 15.08. 14:00 0.4 l/m2 in 6 Std. Regen
Mi, 15.08. 8:00 0.0 l/m2 in 12 Std. -
Mi, 15.08. 2:00 0.0 l/m2 in 6 Std. -
Ortszeit Niederschlagsmenge Niederschlagsart
Do, 16.08. 21:00 0.0 l/m2 in 1 Std. -
Do, 16.08. 20:50 keine Meldung -
Do, 16.08. 20:40 keine Meldung -
Do, 16.08. 20:30 0.0 l/m2 in 1 Std. -
Do, 16.08. 20:20 keine Meldung -
Do, 16.08. 20:10 keine Meldung -
Do, 16.08. 20:00 0.0 l/m2 in 1 Std. -
Do, 16.08. 19:30 0.0 l/m2 in 1 Std. -
Do, 16.08. 19:00 0.0 l/m2 in 1 Std. -
Do, 16.08. 18:30 0.0 l/m2 in 1 Std. -
Do, 16.08. 18:00 0.0 l/m2 in 1 Std. -
Ortszeit Stärke Spitze Richtung
km/h Bft. km/h Grad Sektor
Do, 16.08. 20:00 32 5 43 250° W
Do, 16.08. 14:00 25 4 43 220° SW
Do, 16.08. 8:00 32 5 40 190° S
Do, 16.08. 2:00 22 4 28 210° SW
Mi, 15.08. 20:00 11 2 22 230° SW
Mi, 15.08. 14:00 14 3 36 250° W
Mi, 15.08. 8:00 13 3 31 230° SW
Mi, 15.08. 2:00 18 3 43 270° W
Ortszeit Stärke Spitze Richtung
km/h Bft. km/h Grad Sektor
Do, 16.08. 21:00 20 4 41 270° W
Do, 16.08. 20:50 20 4 - 270° W
Do, 16.08. 20:40 22 4 - 270° W
Do, 16.08. 20:30 29 5 40 290° W
Do, 16.08. 20:20 29 5 - 290° W
Do, 16.08. 20:10 28 4 - 270° W
Do, 16.08. 20:00 32 5 43 250° W
Do, 16.08. 19:30 31 5 41 250° W
Do, 16.08. 19:00 26 4 33 240° SW
Do, 16.08. 18:30 18 3 25 240° SW
Do, 16.08. 18:00 17 3 33 220° SW
Ortszeit Untergrenze Bedeckung Gattung
total tief tief mittel hoch
Do, 16.08. 20:00 1500 m 7/8 7/8 - - -
Do, 16.08. 14:00 1200 m 8/8 8/8 - - -
Do, 16.08. 8:00 990 m 8/8 8/8 - - -
Do, 16.08. 2:00 1050 m 0/8 0/8 - - -
Mi, 15.08. 20:00 960 m 7/8 7/8 - - -
Mi, 15.08. 14:00 1500 m 8/8 8/8 - - -
Mi, 15.08. 8:00 1290 m 8/8 8/8 - - -
Mi, 15.08. 2:00 1800 m 8/8 8/8 - - -
Ortszeit Bedeckungsgrad in Achtel und Wolkenuntergrenze
Do, 16.08. 21:00 keine Wolken
Do, 16.08. 20:50 keine Wolken
Do, 16.08. 20:40 keine Wolken
Do, 16.08. 20:30 3(1500m) 3(9000m)
Do, 16.08. 20:20 3(1500m) 3(9000m)
Do, 16.08. 20:10 6(1500m) 6(9000m)
Do, 16.08. 20:00 7(1500m) 7(9000m)
Do, 16.08. 19:30 8(1500m)
Do, 16.08. 19:00 7(1500m)
Do, 16.08. 18:30 8(1500m)
Do, 16.08. 18:00 8(1470m)
Ortszeit Luftdruck NN (hPa) Tendenz (hPa in 3 Std.)
Do, 16.08. 20:00 1014 - 0,1
Do, 16.08. 14:00 1014 0,0
Do, 16.08. 8:00 1015 - 0,5
Do, 16.08. 2:00 1016 - 0,5
Mi, 15.08. 20:00 1017 - 0,3
Mi, 15.08. 14:00 1017 + 0,4
Mi, 15.08. 8:00 1015 + 0,2
Mi, 15.08. 2:00 1015 + 0,4
Ortszeit Luftdruck NN (hPa) Tendenz (hPa in 3 Std.)
Do, 16.08. 21:00 1014 + 0,4
Do, 16.08. 20:50 1014 keine Meldung
Do, 16.08. 20:40 1014 keine Meldung
Do, 16.08. 20:30 1014 + 0,3
Do, 16.08. 20:20 1014 keine Meldung
Do, 16.08. 20:10 1014 keine Meldung
Do, 16.08. 20:00 1014 - 0,1
Do, 16.08. 19:30 1014 + 0,1
Do, 16.08. 19:00 1014 - 0,1
Do, 16.08. 18:30 1014 - 0,1
Do, 16.08. 18:00 1014 0,0
Ortszeit Schneehöhe (cm)
Do, 16.08. 20:00 -
Do, 16.08. 14:00 -
Do, 16.08. 8:00 -
Do, 16.08. 2:00 -
Mi, 15.08. 20:00 -
Mi, 15.08. 14:00 -
Mi, 15.08. 8:00 -
Mi, 15.08. 2:00 -
Ortszeit Schneehöhe (cm)
Do, 16.08. 21:00 -
Do, 16.08. 20:50 -
Do, 16.08. 20:40 -
Do, 16.08. 20:30 -
Do, 16.08. 20:20 -
Do, 16.08. 20:10 -
Do, 16.08. 20:00 -
Do, 16.08. 19:30 -
Do, 16.08. 19:00 -
Do, 16.08. 18:30 -
Do, 16.08. 18:00 -
Link zu dieser Seite / Seite empfehlen

Das Wetter in ...